Leon — D5BH4 — position and weather

sailwx.info

Track history (hours):
 
Tides and Currents Weather Stations Pressure Air Temp Water Temp Dewpoint Dewpoint Depression Visibility Wind Speed Wind Dir Waves Ship Positions

Leon

Last reported at 2014-Nov-27 21:31 UTC. Time now 2014-Nov-27 22:01 UTC.
Position N 54°04' E 014°17'.

Length 95 m; draft 5.6 m.

Type: Ship (hazmat cat C). MMSI: 636015519.

Date/timePositionNaut miles runAvg speedWind from/ knotsBaromVisibWave heightAir tempDewpointWater temp
2014-Nov-27 21:31N 54°04' E 014°17'0 0.0
2014-Nov-27 20:31N 54°04' E 014°17'0 0.0
2014-Nov-27 19:31N 54°04' E 014°17'0 0.0
2014-Nov-27 18:31N 54°04' E 014°17'0 0.0
2014-Nov-27 17:28N 54°04' E 014°17'0 0.0
2014-Nov-27 16:31N 54°04' E 014°17'0 0.0
2014-Nov-27 15:28N 54°04' E 014°17'0 0.0
2014-Nov-27 14:31N 54°04' E 014°17'0 0.0
2014-Nov-27 13:31N 54°04' E 014°17'0 0.0
2014-Nov-27 12:31N 54°04' E 014°17'0 0.0
2014-Nov-27 11:31N 54°04' E 014°17'0 0.0
2014-Nov-27 10:31N 54°04' E 014°17'0 0.0
2014-Nov-27 09:31N 54°04' E 014°17'0 0.0
2014-Nov-27 08:31N 54°04' E 014°17'6 0.1
2014-Nov-25 12:11N 53°58' E 014°16'4 7.0
2014-Nov-25 11:33N 53°54' E 014°15'7 7.3
2014-Nov-25 10:33N 53°48' E 014°21'1010.0
2014-Nov-25 09:33N 53°40' E 014°32'9 8.9
2014-Nov-25 08:33N 53°32' E 014°38'2 2.5
2014-Nov-25 07:32N 53°29' E 014°37'0 0.0
2014-Nov-25 06:32N 53°29' E 014°37'0 0.0
2014-Nov-25 05:32N 53°29' E 014°37'0 0.0
2014-Nov-25 04:32N 53°29' E 014°37'0 0.0
2014-Nov-25 03:32N 53°29' E 014°37'0 0.0
2014-Nov-25 02:32N 53°29' E 014°37'0 0.0
2014-Nov-25 01:32N 53°29' E 014°37'0 0.0
2014-Nov-25 00:32N 53°29' E 014°37'0 0.0
2014-Nov-24 23:32N 53°29' E 014°37'0 0.0
2014-Nov-24 22:32N 53°29' E 014°37'0 0.0
2014-Nov-24 21:32N 53°29' E 014°37'0 0.0
2014-Nov-24 20:32N 53°29' E 014°37'0 0.0
2014-Nov-24 19:32N 53°29' E 014°37'0 0.0
2014-Nov-24 18:32N 53°29' E 014°37'0 0.0
2014-Nov-24 17:32N 53°29' E 014°37'0 0.0
2014-Nov-24 16:32N 53°29' E 014°37'0 0.0
2014-Nov-24 15:32N 53°29' E 014°37'3 3.2
2014-Nov-24 14:33N 53°32' E 014°38'9 8.7
2014-Nov-24 13:33N 53°40' E 014°31'9 9.4
2014-Nov-24 12:33N 53°48' E 014°22'8 7.5
2014-Nov-24 11:33N 53°54' E 014°15'7 7.5
2014-Nov-24 10:33N 54°02' E 014°14'177 7.3
2014-Nov-23 10:31N 55°14' E 018°53'  
Track history (hours):
 
Tides and Currents Weather Stations Pressure Air Temp Water Temp Dewpoint Dewpoint Depression Visibility Wind Speed Wind Dir Waves Ship Positions

Leon

Last reported at 2014-Nov-27 21:31 UTC. Time now 2014-Nov-27 22:01 UTC.
Position N 54°04' E 014°17'.

Length 95 m; draft 5.6 m.

Type: Ship (hazmat cat C). MMSI: 636015519.

Date/timePositionNaut miles runAvg speedWind from/ knotsBaromVisibWave heightAir tempDewpointWater temp
2014-Nov-27 21:31N 54°04' E 014°17'0 0.0
2014-Nov-27 20:31N 54°04' E 014°17'0 0.0
2014-Nov-27 19:31N 54°04' E 014°17'0 0.0
2014-Nov-27 18:31N 54°04' E 014°17'0 0.0
2014-Nov-27 17:28N 54°04' E 014°17'0 0.0
2014-Nov-27 16:31N 54°04' E 014°17'0 0.0
2014-Nov-27 15:28N 54°04' E 014°17'0 0.0
2014-Nov-27 14:31N 54°04' E 014°17'0 0.0
2014-Nov-27 13:31N 54°04' E 014°17'0 0.0
2014-Nov-27 12:31N 54°04' E 014°17'0 0.0
2014-Nov-27 11:31N 54°04' E 014°17'0 0.0
2014-Nov-27 10:31N 54°04' E 014°17'0 0.0
2014-Nov-27 09:31N 54°04' E 014°17'0 0.0
2014-Nov-27 08:31N 54°04' E 014°17'6 0.1
2014-Nov-25 12:11N 53°58' E 014°16'4 7.0
2014-Nov-25 11:33N 53°54' E 014°15'7 7.3
2014-Nov-25 10:33N 53°48' E 014°21'1010.0
2014-Nov-25 09:33N 53°40' E 014°32'9 8.9
2014-Nov-25 08:33N 53°32' E 014°38'2 2.5
2014-Nov-25 07:32N 53°29' E 014°37'0 0.0
2014-Nov-25 06:32N 53°29' E 014°37'0 0.0
2014-Nov-25 05:32N 53°29' E 014°37'0 0.0
2014-Nov-25 04:32N 53°29' E 014°37'0 0.0
2014-Nov-25 03:32N 53°29' E 014°37'0 0.0
2014-Nov-25 02:32N 53°29' E 014°37'0 0.0
2014-Nov-25 01:32N 53°29' E 014°37'0 0.0
2014-Nov-25 00:32N 53°29' E 014°37'0 0.0
2014-Nov-24 23:32N 53°29' E 014°37'0 0.0
2014-Nov-24 22:32N 53°29' E 014°37'0 0.0
2014-Nov-24 21:32N 53°29' E 014°37'0 0.0
2014-Nov-24 20:32N 53°29' E 014°37'0 0.0
2014-Nov-24 19:32N 53°29' E 014°37'0 0.0
2014-Nov-24 18:32N 53°29' E 014°37'0 0.0
2014-Nov-24 17:32N 53°29' E 014°37'0 0.0
2014-Nov-24 16:32N 53°29' E 014°37'0 0.0
2014-Nov-24 15:32N 53°29' E 014°37'3 3.2
2014-Nov-24 14:33N 53°32' E 014°38'9 8.7
2014-Nov-24 13:33N 53°40' E 014°31'9 9.4
2014-Nov-24 12:33N 53°48' E 014°22'8 7.5
2014-Nov-24 11:33N 53°54' E 014°15'7 7.5
2014-Nov-24 10:33N 54°02' E 014°14'177 7.3
2014-Nov-23 10:31N 55°14' E 018°53'  

Dump ship's entire track history